nws-alerts: Checking more than four warning/county codes can delay the loading of your pages. You should use a cron job to get the data.

Nearby METAR Reports

 

KNFE - Fentress Naval, Virginia, USA
Distance from station: ENE 5mi, 7km
Updated: Tue, 25-Jun-2024 10:56am EDT
Clear
Clear
 Wind from varies
Wind: varies 3 mph, 6 km/h
Temperature: 88°F, 31°C
Dew Point: 57°F, 14°C
Humidity: 35%
Barometer: 30.02 inHg, 1016.6 hPa
Clouds: Clear
Visibility: 10 miles, 16 km
2024/06/25 14:56 KNFE 251456Z AUTO VRB03KT 10SM CLR 31/14 A3002 RMK AO2 SLP166 T03110139 53011
KCPK - Chesapeake, Virginia, USA
Distance from station: W 6mi, 9km
Updated: Tue, 25-Jun-2024 11:35am EDT
Clear
Clear
 Wind from ESE
Wind: ESE 5 mph, 7 km/h
Temperature: 84°F, 29°C
Dew Point: 50°F, 10°C
Humidity: 31%
Barometer: 30.02 inHg, 1016.6 hPa
Clouds: Clear
Visibility: 10 miles, 16 km
2024/06/25 15:35 KCPK 251535Z AUTO 11004KT 10SM CLR 29/10 A3002 RMK AO2 T02920104
 
KNTU - Oceana Nas/Souce, Virginia, USA
Distance from station: NE 14mi, 23km
Updated: Tue, 25-Jun-2024 10:56am EDT
Few Clouds
Few Clouds
 Wind from S
Wind: S 5 mph, 7 km/h
Temperature: 84°F, 29°C
Heat Index: 83°F, 28°C
Dew Point: 57°F, 14°C
Humidity: 40%
Barometer: 30.01 inHg, 1016.3 hPa
Clouds: Few Clouds
Visibility: 10 miles, 16 km
Cloud details: Few Clouds 25000 ft
2024/06/25 14:56 KNTU 251456Z 17004KT 10SM FEW250 29/14 A3001 RMK AO2 SLP163 T02940144 53011
KORF - Norfolk, Virginia, USA
Distance from station: N 15mi, 24km
Updated: Tue, 25-Jun-2024 10:51am EDT
Clear
Clear
 Wind from N
Wind: N 6 mph, 9 km/h
Temperature: 84°F, 29°C
Heat Index: 85°F, 29°C
Dew Point: 63°F, 17°C
Humidity: 48%
Barometer: 30.01 inHg, 1016.3 hPa
Clouds: Clear
Visibility: 10 miles, 16 km
2024/06/25 14:51 KORF 251451Z 36005KT 10SM CLR 29/17 A3001 RMK AO2 SLP162 T02940172 53010
 
KPVG - Norfolk/Hampton, Virginia, USA
Distance from station: WNW 15mi, 24km
Updated: Tue, 25-Jun-2024 11:09am EDT
Clear
Clear
 
Temperature: 84°F, 29°C
Heat Index: 83°F, 28°C
Dew Point: 57°F, 14°C
Humidity: 40%
Barometer: 30.03 inHg, 1016.9 hPa
Clouds: Clear
Visibility: 10 miles, 16 km
2024/06/25 15:09 KPVG 251509Z AUTO 10SM CLR 29/14 A3003 RMK AO2 $
KNGU - Norfolk Nas/Cham, Virginia, USA
Distance from station: N 16mi, 26km
Updated: Tue, 25-Jun-2024 10:59am EDT
Partly cloudy
Partly cloudy
 Wind from varies
Wind: varies 6 mph, 9 km/h
Temperature: 84°F, 29°C
Heat Index: 84°F, 29°C
Dew Point: 61°F, 16°C
Humidity: 45%
Barometer: 30.02 inHg, 1016.6 hPa
Clouds: Partly cloudy
Visibility: 10 miles, 16 km
Cloud details: Few Clouds 3000 ft
Partly cloudy 25000 ft
2024/06/25 14:59 KNGU 251459Z VRB05KT 10SM FEW030 SCT250 29/16 A3002 RMK AO2 SLP167 T02940156 53010
 
KSFQ - Suffolk, Virginia, USA
Distance from station: W 21mi, 34km
Updated: Tue, 25-Jun-2024 11:35am EDT
Partly cloudy
Partly cloudy
 Wind from E
Wind: E 3 mph, 6 km/h
Temperature: 88°F, 31°C
Dew Point: 52°F, 11°C
Humidity: 29%
Barometer: 30.04 inHg, 1017.3 hPa
Clouds: Partly cloudy
Visibility: 10 miles, 16 km
Cloud details: Partly cloudy 9500 ft
2024/06/25 15:35 KSFQ 251535Z AUTO 08003KT 10SM SCT095 31/11 A3004 RMK AO2 T03070106
KONX - Currituck, North Carolina, USA
Distance from station: SSE 22mi, 36km
Updated: Tue, 25-Jun-2024 11:35am EDT
Clear
Clear
 Wind from E
Wind: E 3 mph, 6 km/h
Temperature: 86°F, 30°C
Dew Point: 54°F, 12°C
Humidity: 33%
Barometer: 30.03 inHg, 1016.9 hPa
Clouds: Clear
Visibility: 10 miles, 16 km
2024/06/25 15:35 KONX 251535Z AUTO 10003KT 10SM CLR 30/12 A3003 RMK AO2 T02960116
 
KLFI - Langley Afb/Hamp, Virginia, USA
Distance from station: NNW 28mi, 45km
Updated: Tue, 25-Jun-2024 10:55am EDT
Clear
Clear
 Wind from W
Wind: W 7 mph, 11 km/h
Temperature: 86°F, 30°C
Dew Point: 54°F, 12°C
Humidity: 33%
Barometer: 30.00 inHg, 1015.9 hPa
Clouds: Clear
Visibility: 10 miles, 16 km
2024/06/25 14:55 KLFI 251455Z AUTO 28006KT 10SM CLR 30/12 A3000 RMK AO2 SLP165 T03040123 53007
KECG - Elizabeth City, North Carolina, USA
Distance from station: S 29mi, 46km
Updated: Tue, 25-Jun-2024 10:54am EDT
Clear
Clear
 Wind from ESE
Wind: ESE 7 mph, 11 km/h
Temperature: 84°F, 29°C
Heat Index: 83°F, 28°C
Dew Point: 57°F, 14°C
Humidity: 40%
Barometer: 30.01 inHg, 1016.3 hPa
Clouds: Clear
Visibility: 10 miles, 16 km
2024/06/25 14:54 KECG 251454Z 11006KT 10SM CLR 29/14 A3001 RMK AO2 SLP163 T02940144 53008
 
KPHF - Newport News, Virginia, USA
Distance from station: NNW 35mi, 56km
Updated: Tue, 25-Jun-2024 10:54am EDT
Clear
Clear
 Wind from calm
Wind: Calm
Temperature: 84°F, 29°C
Dew Point: 54°F, 12°C
Humidity: 35%
Barometer: 30.01 inHg, 1016.3 hPa
Clouds: Clear
Visibility: 10 miles, 16 km
2024/06/25 14:54 KPHF 251454Z 00000KT 10SM CLR 29/12 A3001 RMK AO2 SLP163 T02940117 53007
KFAF - Ft Eustis/Felker, Virginia, USA
Distance from station: NW 37mi, 60km
Updated: Tue, 25-Jun-2024 10:55am EDT
Clear
Clear
 Wind from NW
Wind: NW 5 mph, 7 km/h
Temperature: 84°F, 29°C
Heat Index: 84°F, 29°C
Dew Point: 59°F, 15°C
Humidity: 43%
Barometer: 29.99 inHg, 1015.6 hPa
Clouds: Clear
Visibility: 10 miles, 16 km
2024/06/25 14:55 KFAF 251455Z AUTO 31004KT 10SM CLR 29/15 A2999 RMK AO2 SLP159 T02850147 50009 $
 
KFKN - Franklin/J B Ros, Virginia, USA
Distance from station: W 38mi, 61km
Updated: Tue, 25-Jun-2024 11:35am EDT
Clear
Clear
 Wind from SSE
Wind: SSE 6 mph, 9 km/h
Temperature: 86°F, 30°C
Dew Point: 52°F, 11°C
Humidity: 31%
Barometer: 30.03 inHg, 1016.9 hPa
Clouds: Clear
Visibility: 10 miles, 16 km
2024/06/25 15:35 KFKN 251535Z AUTO 15005KT 10SM CLR 30/11 A3003 RMK AO2 T03000109
KJGG - Williamsburg, Virginia, USA
Distance from station: NW 47mi, 76km
Updated: Tue, 07-Feb-2023 11:35am EST
NOT Current

 Wind from ESE
Wind: ESE 3 mph, 6 km/h
Temperature: 48°F, 9°C
Dew Point: 36°F, 2°C
Humidity: 62%
Visibility: 10 miles, 16 km
2023/02/07 16:35 KJGG 071635Z AUTO 11003KT 10SM 09/02 RMK AO1
 
KAKQ - Norfolk/Wakefld, Virginia, USA
Distance from station: WNW 48mi, 78km
Updated: Tue, 25-Jun-2024 10:54am EDT
Clear
Clear
 Wind from W
Wind: W 5 mph, 7 km/h
Temperature: 86°F, 30°C
Dew Point: 57°F, 14°C
Humidity: 38%
Barometer: 30.02 inHg, 1016.6 hPa
Clouds: Clear
Visibility: 10 miles, 16 km
2024/06/25 14:54 KAKQ 251454Z AUTO 28004KT 10SM CLR 30/14 A3002 RMK AO2 SLP165 T03000139 53011
KEDE - Edenton, North Carolina, USA
Distance from station: SSW 50mi, 80km
Updated: Tue, 25-Jun-2024 11:30am EDT
Clear
Clear
 Wind from SE
Wind: SE 8 mph, 13 km/h
Temperature: 88°F, 31°C
Heat Index: 90°F, 32°C
Dew Point: 64°F, 18°C
Humidity: 46%
Barometer: 30.04 inHg, 1017.3 hPa
Clouds: Clear
Visibility: 10 miles, 16 km
2024/06/25 15:30 KEDE 251530Z AUTO 13007KT 10SM CLR 31/18 A3004 RMK AO2 T03070178